createdAt,value
2017-10-22T00:00:37.301Z,1.17
2017-10-22T00:05:38.378Z,1.40
2017-10-22T00:10:39.445Z,1.10
2017-10-22T00:15:40.517Z,0.93
2017-10-22T00:20:41.624Z,1.10
2017-10-22T00:25:42.710Z,1.00
2017-10-22T00:30:43.795Z,1.00
2017-10-22T00:35:44.893Z,0.80
2017-10-22T00:40:46.713Z,0.80
2017-10-22T00:45:47.785Z,1.27
2017-10-22T00:50:48.870Z,1.63
2017-10-22T00:55:49.959Z,0.80
2017-10-22T01:00:51.056Z,1.50
2017-10-22T01:05:52.135Z,1.00
2017-10-22T01:10:53.234Z,1.23
2017-10-22T01:15:54.369Z,1.10
2017-10-22T01:20:56.245Z,1.33
2017-10-22T01:25:57.330Z,1.10
2017-10-22T01:30:58.409Z,1.30
2017-10-22T01:35:59.496Z,1.13
2017-10-22T01:41:01.349Z,0.90
2017-10-22T01:46:02.460Z,1.10
2017-10-22T01:51:04.313Z,1.10
2017-10-22T01:56:05.446Z,0.80
2017-10-22T02:01:06.550Z,0.80
2017-10-22T02:06:07.613Z,1.83
2017-10-22T02:11:09.429Z,0.80
2017-10-22T02:16:10.546Z,0.77
2017-10-22T02:21:11.605Z,1.00
2017-10-22T02:26:12.690Z,0.77
2017-10-22T02:31:13.818Z,0.80
2017-10-22T02:36:14.920Z,0.90
2017-10-22T02:41:15.994Z,0.90
2017-10-22T02:46:17.089Z,1.00
2017-10-22T02:51:18.202Z,0.90
2017-10-22T02:56:19.267Z,0.90
2017-10-22T03:01:20.381Z,1.20
2017-10-22T03:06:22.213Z,0.80
2017-10-22T03:11:23.358Z,1.10
2017-10-22T03:16:24.465Z,1.03
2017-10-22T03:21:25.563Z,1.20
2017-10-22T03:26:26.644Z,1.60
2017-10-22T03:31:27.723Z,1.70
2017-10-22T03:36:28.831Z,1.60
2017-10-22T03:41:29.934Z,2.63
2017-10-22T03:46:31.017Z,3.10
2017-10-22T03:51:32.130Z,2.77
2017-10-22T03:56:33.240Z,2.40
2017-10-22T04:01:34.951Z,2.33
2017-10-22T04:06:36.035Z,2.47
2017-10-22T04:11:37.169Z,1.53
2017-10-22T04:16:38.281Z,1.33
2017-10-22T04:21:39.367Z,1.00
2017-10-22T04:26:41.998Z,0.87
2017-10-22T04:31:43.071Z,0.90
2017-10-22T04:36:44.199Z,0.83
2017-10-22T04:41:45.301Z,1.23
2017-10-22T04:46:46.373Z,0.87
2017-10-22T04:51:47.443Z,0.93
2017-10-22T04:56:49.266Z,0.70
2017-10-22T05:01:50.349Z,0.90
2017-10-22T05:06:51.440Z,1.20
2017-10-22T05:11:53.265Z,1.00
2017-10-22T05:16:54.385Z,0.80
2017-10-22T05:21:56.249Z,1.20
2017-10-22T05:26:58.085Z,1.30
2017-10-22T05:31:59.167Z,1.63
2017-10-22T05:37:01.065Z,1.23
2017-10-22T05:42:02.879Z,1.70
2017-10-22T05:47:03.985Z,1.83
2017-10-22T05:52:05.080Z,1.30
2017-10-22T05:57:06.174Z,1.70
2017-10-22T06:02:07.941Z,2.17
2017-10-22T06:07:09.057Z,2.50
2017-10-22T06:12:10.919Z,2.40
2017-10-22T06:17:12.011Z,2.80
2017-10-22T06:22:13.105Z,3.37
2017-10-22T06:27:14.196Z,3.97
2017-10-22T06:32:16.035Z,3.60
2017-10-22T06:37:17.213Z,3.70
2017-10-22T06:42:18.320Z,2.80
2017-10-22T06:47:19.458Z,4.27
2017-10-22T06:52:21.316Z,3.40
2017-10-22T06:57:22.465Z,3.17
2017-10-22T07:02:23.572Z,2.73
2017-10-22T07:07:24.703Z,4.30
2017-10-22T07:12:25.867Z,2.37
2017-10-22T07:17:27.670Z,2.13
2017-10-22T07:22:28.766Z,2.20
2017-10-22T07:27:29.846Z,1.50
2017-10-22T07:32:30.918Z,1.50
2017-10-22T07:37:32.042Z,1.57
2017-10-22T07:42:33.218Z,2.20
2017-10-22T07:47:34.336Z,2.37
2017-10-22T07:52:35.445Z,2.70
2017-10-22T07:57:36.537Z,2.37
2017-10-22T08:02:37.640Z,3.43
2017-10-22T08:07:38.818Z,3.17
2017-10-22T08:12:39.891Z,3.07
2017-10-22T08:17:40.973Z,2.37
2017-10-22T08:22:42.099Z,2.37
2017-10-22T08:27:43.197Z,2.53
2017-10-22T08:32:44.325Z,2.43
2017-10-22T08:37:45.398Z,2.40
2017-10-22T08:42:47.241Z,3.40
2017-10-22T08:47:48.363Z,3.40
2017-10-22T08:52:49.468Z,3.50
2017-10-22T08:57:50.619Z,3.97
2017-10-22T09:02:51.733Z,4.50
2017-10-22T09:07:53.073Z,2.70
2017-10-22T09:12:54.923Z,2.53
2017-10-22T09:17:56.754Z,2.90
2017-10-22T09:23:04.371Z,2.00
2017-10-22T09:28:05.457Z,2.53
2017-10-22T09:33:13.618Z,1.90
2017-10-22T09:38:14.689Z,2.57
2017-10-22T09:43:16.517Z,2.40
2017-10-22T09:48:17.639Z,2.23
2017-10-22T09:53:18.730Z,1.70
2017-10-22T09:58:19.850Z,2.00
2017-10-22T10:03:21.010Z,2.00
2017-10-22T10:08:22.845Z,1.90
2017-10-22T10:13:25.062Z,1.63
2017-10-22T10:18:27.033Z,1.50
2017-10-22T10:23:29.063Z,1.60
2017-10-22T10:28:30.193Z,1.10
2017-10-22T10:33:31.400Z,1.20
2017-10-22T10:38:32.517Z,1.20
2017-10-22T10:43:33.625Z,1.00
2017-10-22T10:48:34.763Z,1.30
2017-10-22T10:53:35.886Z,1.10
2017-10-22T10:58:37.774Z,1.00
2017-10-22T11:03:39.042Z,1.50
2017-10-22T11:08:40.162Z,1.20
2017-10-22T11:13:41.289Z,1.20
2017-10-22T11:18:42.572Z,1.27
2017-10-22T11:23:43.636Z,1.30
2017-10-22T11:28:44.730Z,1.50
2017-10-22T11:33:45.840Z,1.30
2017-10-22T11:38:51.080Z,0.60
2017-10-22T11:43:52.204Z,0.90
2017-10-22T11:48:53.532Z,1.03
2017-10-22T11:53:54.729Z,1.47
2017-10-22T11:58:56.239Z,1.00
2017-10-22T12:03:57.324Z,0.97
2017-10-22T12:08:58.408Z,1.10
2017-10-22T12:14:00.241Z,1.13
2017-10-22T12:19:01.348Z,1.17
2017-10-22T12:24:03.241Z,1.00
2017-10-22T12:29:11.253Z,0.77
2017-10-22T12:34:12.329Z,0.90
2017-10-22T12:39:13.413Z,1.00
2017-10-22T12:44:14.863Z,1.10
2017-10-22T12:49:15.940Z,1.13
2017-10-22T12:54:17.123Z,1.20
2017-10-22T12:59:18.205Z,0.90
2017-10-22T13:04:20.057Z,1.10
2017-10-22T13:09:21.129Z,1.00
2017-10-22T13:14:22.945Z,1.13
2017-10-22T13:19:24.070Z,0.83
2017-10-22T13:24:25.915Z,1.00
2017-10-22T13:29:27.004Z,1.23
2017-10-22T13:34:28.811Z,0.80
2017-10-22T13:39:29.913Z,1.67
2017-10-22T13:44:31.158Z,1.43
2017-10-22T13:49:33.002Z,1.03
2017-10-22T13:54:34.368Z,1.00
2017-10-22T13:59:35.469Z,1.40
2017-10-22T14:04:36.615Z,1.00
2017-10-22T14:15:01.708Z,1.10
2017-10-22T14:20:02.781Z,0.60
2017-10-22T14:25:03.869Z,1.40
2017-10-22T14:30:04.945Z,1.03
2017-10-22T14:35:06.025Z,1.20
2017-10-22T14:40:07.098Z,1.30
2017-10-22T14:45:08.166Z,1.03
2017-10-22T14:50:09.219Z,0.97
2017-10-22T14:55:10.261Z,0.93
2017-10-22T15:00:11.335Z,1.60
2017-10-22T15:05:13.162Z,1.30
2017-10-22T15:10:14.233Z,1.40
2017-10-22T15:15:15.304Z,4.60
2017-10-22T15:20:16.339Z,5.70
2017-10-22T15:25:17.404Z,10.77
2017-10-22T15:30:18.482Z,4.00
2017-10-22T15:35:19.552Z,3.20
2017-10-22T15:40:20.633Z,2.83
2017-10-22T15:45:22.421Z,2.70
2017-10-22T15:50:23.501Z,2.37
2017-10-22T15:55:24.590Z,2.37
2017-10-22T16:00:25.644Z,2.77
2017-10-22T16:05:26.695Z,3.83
2017-10-22T16:10:27.770Z,3.37
2017-10-22T16:15:28.830Z,1.90
2017-10-22T16:20:36.882Z,1.30
2017-10-22T16:25:38.693Z,2.13
2017-10-22T16:30:39.782Z,2.00
2017-10-22T16:35:40.865Z,2.50
2017-10-22T16:40:42.692Z,2.97
2017-10-22T16:45:43.796Z,3.10
2017-10-22T16:50:45.081Z,2.97
2017-10-22T16:55:46.214Z,2.20
2017-10-22T17:00:47.284Z,3.23
2017-10-22T17:05:55.250Z,1.57
2017-10-22T17:10:56.320Z,1.07
2017-10-22T17:15:57.383Z,1.30
2017-10-22T17:20:58.416Z,1.47
2017-10-22T17:25:59.446Z,1.00
2017-10-22T17:31:01.229Z,1.30
2017-10-22T17:36:02.295Z,1.07
2017-10-22T17:41:03.361Z,1.17
2017-10-22T17:46:04.452Z,0.90
2017-10-22T17:51:06.258Z,1.37
2017-10-22T17:56:08.057Z,1.83
2017-10-22T18:01:09.109Z,1.80
2017-10-22T18:06:10.929Z,1.63
2017-10-22T18:11:11.978Z,1.80
2017-10-22T18:16:34.282Z,1.60
2017-10-22T18:21:36.071Z,2.10
2017-10-22T18:26:37.873Z,2.43
2017-10-22T18:31:38.963Z,1.70
2017-10-22T18:36:40.152Z,1.80
2017-10-22T18:41:41.930Z,1.77
2017-10-22T18:46:43.770Z,1.70
2017-10-22T18:51:44.884Z,1.80
2017-10-22T18:56:45.948Z,1.33
2017-10-22T19:01:46.990Z,1.80
2017-10-22T19:06:48.789Z,1.80
2017-10-22T19:11:49.845Z,1.40
2017-10-22T19:16:51.032Z,1.50
2017-10-22T19:21:52.129Z,1.13
2017-10-22T19:26:53.929Z,0.90
2017-10-22T19:31:54.982Z,0.90
2017-10-22T19:36:56.065Z,0.90
2017-10-22T19:41:57.097Z,1.20
2017-10-22T19:46:58.147Z,1.10
2017-10-22T19:51:59.948Z,1.20
2017-10-22T19:57:07.123Z,1.63
2017-10-22T20:02:08.966Z,1.00
2017-10-22T20:07:10.025Z,1.00
2017-10-22T20:12:11.145Z,0.77
2017-10-22T20:17:13.209Z,0.90
2017-10-22T20:22:14.257Z,0.73
2017-10-22T20:27:16.041Z,1.17
2017-10-22T20:32:17.269Z,1.10
2017-10-22T20:37:18.349Z,0.87
2017-10-22T20:42:20.133Z,0.83
2017-10-22T20:47:21.937Z,0.70
2017-10-22T20:52:23.005Z,0.80
2017-10-22T20:57:24.041Z,0.90
2017-10-22T21:02:25.105Z,0.80
2017-10-22T21:07:26.161Z,0.80
2017-10-22T21:12:27.201Z,0.90
2017-10-22T21:17:29.005Z,0.83
2017-10-22T21:22:30.040Z,1.00
2017-10-22T21:27:31.087Z,0.97
2017-10-22T21:32:32.927Z,0.80
2017-10-22T21:37:34.002Z,1.30
2017-10-22T21:42:35.070Z,0.83
2017-10-22T21:47:36.850Z,0.80
2017-10-22T21:52:38.670Z,1.13
2017-10-22T21:57:39.730Z,1.03
2017-10-22T22:02:40.793Z,0.80
2017-10-22T22:07:41.853Z,1.50
2017-10-22T22:12:42.922Z,1.40
2017-10-22T22:17:43.976Z,1.20
2017-10-22T22:22:45.040Z,0.90
2017-10-22T22:27:46.849Z,1.30
2017-10-22T22:32:48.645Z,1.20
2017-10-22T22:37:49.685Z,1.67
2017-10-22T22:42:51.484Z,1.03
2017-10-22T22:47:52.557Z,1.00
2017-10-22T22:52:53.589Z,1.57
2017-10-22T22:57:54.635Z,1.53
2017-10-22T23:02:56.454Z,0.97
2017-10-22T23:07:57.498Z,1.13
2017-10-22T23:12:58.542Z,1.37
2017-10-22T23:17:59.621Z,1.20
2017-10-22T23:23:00.689Z,1.47
2017-10-22T23:28:01.765Z,1.90
2017-10-22T23:33:02.830Z,1.97
2017-10-22T23:38:03.869Z,1.53
2017-10-22T23:43:04.934Z,1.90
2017-10-22T23:48:05.994Z,1.97
2017-10-22T23:53:07.037Z,1.70
2017-10-22T23:58:08.093Z,1.67
